createdAt,value
2023-04-22T00:00:53.726Z,506.00
2023-04-22T00:01:48.841Z,504.00
2023-04-22T00:02:44.249Z,512.00
2023-04-22T00:03:39.532Z,504.00
2023-04-22T00:04:34.729Z,510.00
2023-04-22T00:05:29.757Z,511.00
2023-04-22T00:06:24.758Z,509.00
2023-04-22T00:07:19.989Z,518.00
2023-04-22T00:08:15.196Z,512.00
2023-04-22T00:09:10.453Z,517.00
2023-04-22T00:10:05.674Z,513.00
2023-04-22T00:11:01.059Z,512.00
2023-04-22T00:11:56.160Z,512.00
2023-04-22T00:12:51.468Z,515.00
2023-04-22T00:13:46.650Z,516.00
2023-04-22T00:14:41.753Z,514.00
2023-04-22T00:15:37.141Z,516.00
2023-04-22T00:16:32.328Z,515.00
2023-04-22T00:17:27.504Z,518.00
2023-04-22T00:18:22.699Z,519.00
2023-04-22T00:19:17.923Z,522.00
2023-04-22T00:20:13.211Z,520.00
2023-04-22T00:21:08.431Z,523.00
2023-04-22T00:22:03.558Z,519.00
2023-04-22T00:22:58.748Z,521.00
2023-04-22T00:23:54.022Z,520.00
2023-04-22T00:24:49.215Z,517.00
2023-04-22T00:25:44.393Z,520.00
2023-04-22T00:26:39.545Z,517.00
2023-04-22T00:27:34.714Z,524.00
2023-04-22T00:28:29.851Z,522.00
2023-04-22T00:29:25.039Z,519.00
2023-04-22T00:30:20.316Z,526.00
2023-04-22T00:31:15.452Z,522.00
2023-04-22T00:32:10.453Z,527.00
2023-04-22T00:33:05.665Z,519.00
2023-04-22T00:34:00.712Z,522.00
2023-04-22T00:34:55.943Z,520.00
2023-04-22T00:35:51.066Z,524.00
2023-04-22T00:36:46.336Z,524.00
2023-04-22T00:37:41.324Z,523.00
2023-04-22T00:38:36.483Z,521.00
2023-04-22T00:39:31.626Z,528.00
2023-04-22T00:40:26.995Z,524.00
2023-04-22T00:41:22.102Z,521.00
2023-04-22T00:42:17.163Z,523.00
2023-04-22T00:43:12.295Z,518.00
2023-04-22T00:44:07.520Z,519.00
2023-04-22T00:45:02.837Z,521.00
2023-04-22T00:45:57.865Z,521.00
2023-04-22T00:46:53.074Z,523.00
2023-04-22T00:47:48.217Z,524.00
2023-04-22T00:48:43.262Z,527.00
2023-04-22T00:49:38.748Z,523.00
2023-04-22T00:50:33.663Z,526.00
2023-04-22T00:51:28.967Z,523.00
2023-04-22T00:52:23.988Z,526.00
2023-04-22T00:53:19.160Z,528.00
2023-04-22T00:54:14.335Z,523.00
2023-04-22T00:55:09.560Z,527.00
2023-04-22T00:56:04.669Z,528.00
2023-04-22T00:56:59.859Z,527.00
2023-04-22T00:57:55.006Z,529.00
2023-04-22T00:58:50.156Z,526.00
2023-04-22T00:59:45.329Z,529.00
2023-04-22T01:00:40.731Z,524.00
2023-04-22T01:01:35.741Z,524.00
2023-04-22T01:02:30.907Z,530.00
2023-04-22T01:03:26.062Z,526.00
2023-04-22T01:04:21.113Z,526.00
2023-04-22T01:05:16.124Z,525.00
2023-04-22T01:06:11.573Z,527.00
2023-04-22T01:07:06.459Z,525.00
2023-04-22T01:08:01.639Z,528.00
2023-04-22T01:08:56.763Z,528.00
2023-04-22T01:09:51.944Z,529.00
2023-04-22T01:10:47.125Z,527.00
2023-04-22T01:11:42.472Z,531.00
2023-04-22T01:12:37.494Z,529.00
2023-04-22T01:13:32.676Z,528.00
2023-04-22T01:14:27.837Z,536.00
2023-04-22T01:15:23.037Z,525.00
2023-04-22T01:16:19.098Z,528.00
2023-04-22T01:17:14.195Z,527.00
2023-04-22T01:18:09.233Z,528.00
2023-04-22T01:19:04.416Z,527.00
2023-04-22T01:19:59.700Z,527.00
2023-04-22T01:20:54.883Z,522.00
2023-04-22T01:21:50.234Z,527.00
2023-04-22T01:22:45.264Z,522.00
2023-04-22T01:23:40.429Z,528.00
2023-04-22T01:24:35.649Z,526.00
2023-04-22T01:25:30.762Z,534.00
2023-04-22T01:26:26.104Z,530.00
2023-04-22T01:27:21.135Z,529.00
2023-04-22T01:28:16.284Z,529.00
2023-04-22T01:29:11.451Z,521.00
2023-04-22T01:30:06.765Z,527.00
2023-04-22T01:31:01.916Z,526.00
2023-04-22T01:31:57.326Z,528.00
2023-04-22T01:32:52.433Z,532.00
2023-04-22T01:33:47.567Z,527.00
2023-04-22T01:34:42.701Z,522.00
2023-04-22T01:35:37.870Z,521.00
2023-04-22T01:36:33.079Z,520.00
2023-04-22T01:37:28.258Z,524.00
2023-04-22T01:38:23.524Z,526.00
2023-04-22T01:39:18.612Z,529.00
2023-04-22T01:40:13.780Z,528.00
2023-04-22T01:41:08.966Z,534.00
2023-04-22T01:42:04.132Z,534.00
2023-04-22T01:42:59.462Z,535.00
2023-04-22T01:43:54.484Z,534.00
2023-04-22T01:44:49.676Z,533.00
2023-04-22T01:45:44.754Z,530.00
2023-04-22T01:46:40.072Z,532.00
2023-04-22T01:47:35.250Z,533.00
2023-04-22T01:48:30.316Z,535.00
2023-04-22T01:49:25.340Z,533.00
2023-04-22T01:50:20.395Z,532.00
2023-04-22T01:51:15.381Z,533.00
2023-04-22T01:52:10.464Z,533.00
2023-04-22T01:53:05.374Z,538.00
2023-04-22T01:54:00.496Z,537.00
2023-04-22T01:54:55.556Z,540.00
2023-04-22T01:55:50.539Z,534.00
2023-04-22T01:56:45.649Z,538.00
2023-04-22T01:57:40.680Z,534.00
2023-04-22T01:58:35.744Z,540.00
2023-04-22T01:59:30.776Z,540.00
2023-04-22T02:00:25.845Z,532.00
2023-04-22T02:01:20.888Z,544.00
2023-04-22T02:02:16.116Z,535.00
2023-04-22T02:03:11.020Z,537.00
2023-04-22T02:04:06.120Z,538.00
2023-04-22T02:05:01.212Z,537.00
2023-04-22T02:05:56.241Z,537.00
2023-04-22T02:06:51.430Z,537.00
2023-04-22T02:07:46.451Z,535.00
2023-04-22T02:08:41.326Z,539.00
2023-04-22T02:09:36.505Z,535.00
2023-04-22T02:10:31.395Z,530.00
2023-04-22T02:11:26.560Z,534.00
2023-04-22T02:12:21.607Z,526.00
2023-04-22T02:13:16.836Z,525.00
2023-04-22T02:14:11.968Z,531.00
2023-04-22T02:15:07.152Z,530.00
2023-04-22T02:16:02.484Z,530.00
2023-04-22T02:16:57.553Z,531.00
2023-04-22T02:17:52.706Z,539.00
2023-04-22T02:18:47.914Z,529.00
2023-04-22T02:19:43.291Z,533.00
2023-04-22T02:20:38.261Z,535.00
2023-04-22T02:21:33.610Z,532.00
2023-04-22T02:22:28.835Z,538.00
2023-04-22T02:23:23.856Z,533.00
2023-04-22T02:24:19.028Z,529.00
2023-04-22T02:25:14.291Z,536.00
2023-04-22T02:26:09.373Z,533.00
2023-04-22T02:27:04.667Z,537.00
2023-04-22T02:27:59.824Z,536.00
2023-04-22T02:28:54.841Z,534.00
2023-04-22T02:29:50.017Z,538.00
2023-04-22T02:30:45.176Z,543.00
2023-04-22T02:31:40.404Z,546.00
2023-04-22T02:32:35.635Z,543.00
2023-04-22T02:33:30.678Z,543.00
2023-04-22T02:34:25.806Z,549.00
2023-04-22T02:35:21.011Z,551.00
2023-04-22T02:36:16.167Z,543.00
2023-04-22T02:37:11.341Z,545.00
2023-04-22T02:38:06.526Z,542.00
2023-04-22T02:39:01.747Z,536.00
2023-04-22T02:39:56.836Z,538.00
2023-04-22T02:40:52.000Z,538.00
2023-04-22T02:41:47.157Z,527.00
2023-04-22T02:42:42.505Z,533.00
2023-04-22T02:43:37.503Z,528.00
2023-04-22T02:44:32.806Z,530.00
2023-04-22T02:45:27.872Z,527.00
2023-04-22T02:46:23.124Z,533.00
2023-04-22T02:47:18.205Z,525.00
2023-04-22T02:48:13.437Z,513.00
2023-04-22T02:49:08.635Z,511.00
2023-04-22T02:50:03.668Z,518.00
2023-04-22T02:50:58.789Z,518.00
2023-04-22T02:51:53.976Z,526.00
2023-04-22T02:52:49.299Z,525.00
2023-04-22T02:53:44.347Z,518.00
2023-04-22T02:54:39.400Z,524.00
2023-04-22T02:55:34.743Z,518.00
2023-04-22T02:56:29.839Z,519.00
2023-04-22T02:57:24.929Z,520.00
2023-04-22T02:58:19.929Z,514.00
2023-04-22T02:59:15.177Z,516.00
2023-04-22T03:00:10.335Z,516.00
2023-04-22T03:01:05.769Z,514.00
2023-04-22T03:02:00.722Z,519.00
2023-04-22T03:02:56.099Z,527.00
2023-04-22T03:03:51.135Z,522.00
2023-04-22T03:04:46.226Z,528.00
2023-04-22T03:05:41.364Z,523.00
2023-04-22T03:06:36.412Z,525.00
2023-04-22T03:07:31.580Z,522.00
2023-04-22T03:08:26.782Z,521.00
2023-04-22T03:09:21.940Z,529.00
2023-04-22T03:10:17.105Z,523.00
2023-04-22T03:11:12.399Z,526.00
2023-04-22T03:12:07.596Z,528.00
2023-04-22T03:13:02.729Z,531.00
2023-04-22T03:13:57.749Z,528.00
2023-04-22T03:14:52.880Z,529.00
2023-04-22T03:15:48.103Z,534.00
2023-04-22T03:16:43.288Z,535.00
2023-04-22T03:17:38.686Z,532.00
2023-04-22T03:18:33.596Z,533.00
2023-04-22T03:19:28.814Z,542.00
2023-04-22T03:20:23.841Z,531.00
2023-04-22T03:21:19.057Z,532.00
2023-04-22T03:22:14.233Z,534.00
2023-04-22T03:23:09.461Z,523.00
2023-04-22T03:24:04.471Z,535.00
2023-04-22T03:24:59.663Z,529.00
2023-04-22T03:25:54.859Z,536.00
2023-04-22T03:26:49.915Z,526.00
2023-04-22T03:27:44.977Z,535.00
2023-04-22T03:28:40.020Z,523.00
2023-04-22T03:29:35.056Z,530.00
2023-04-22T03:30:30.100Z,531.00
2023-04-22T03:31:25.191Z,535.00
2023-04-22T03:32:20.203Z,537.00
2023-04-22T03:33:15.285Z,531.00
2023-04-22T03:34:10.333Z,529.00
2023-04-22T03:35:05.321Z,530.00
2023-04-22T03:36:00.398Z,530.00
2023-04-22T03:36:55.428Z,529.00
2023-04-22T03:37:50.636Z,524.00
2023-04-22T03:38:45.509Z,528.00
2023-04-22T03:39:40.819Z,527.00
2023-04-22T03:40:35.531Z,528.00
2023-04-22T03:41:30.604Z,527.00
2023-04-22T03:42:25.647Z,525.00
2023-04-22T03:43:20.696Z,524.00
2023-04-22T03:44:15.742Z,524.00
2023-04-22T03:45:10.803Z,528.00
2023-04-22T03:46:05.898Z,525.00
2023-04-22T03:47:00.933Z,525.00
2023-04-22T03:47:56.049Z,529.00
2023-04-22T03:48:51.114Z,526.00
2023-04-22T03:49:46.150Z,532.00
2023-04-22T03:50:41.184Z,525.00
2023-04-22T03:51:36.209Z,526.00
2023-04-22T03:52:31.499Z,520.00
2023-04-22T03:53:26.555Z,525.00
2023-04-22T03:54:21.739Z,529.00
2023-04-22T03:55:17.094Z,525.00
2023-04-22T03:56:12.147Z,526.00
2023-04-22T03:57:07.381Z,518.00
2023-04-22T03:58:02.748Z,516.00
2023-04-22T03:58:57.784Z,523.00
2023-04-22T03:59:53.023Z,525.00
2023-04-22T04:00:48.198Z,522.00
2023-04-22T04:01:43.434Z,525.00
2023-04-22T04:02:38.823Z,514.00
2023-04-22T04:03:34.075Z,520.00
2023-04-22T04:04:29.381Z,522.00
2023-04-22T04:05:24.299Z,522.00
2023-04-22T04:06:19.364Z,519.00
2023-04-22T04:07:14.798Z,518.00
2023-04-22T04:08:09.878Z,523.00
2023-04-22T04:09:05.190Z,515.00
2023-04-22T04:10:00.346Z,523.00
2023-04-22T04:10:55.666Z,522.00
2023-04-22T04:11:51.033Z,523.00
2023-04-22T04:12:46.270Z,523.00
2023-04-22T04:13:41.331Z,522.00
2023-04-22T04:14:36.584Z,529.00
2023-04-22T04:15:31.805Z,517.00
2023-04-22T04:16:27.106Z,525.00
2023-04-22T04:17:22.354Z,528.00
2023-04-22T04:18:17.648Z,526.00
2023-04-22T04:19:12.813Z,528.00
2023-04-22T04:20:08.103Z,520.00
2023-04-22T04:21:03.395Z,525.00
2023-04-22T04:21:58.972Z,529.00
2023-04-22T04:22:54.002Z,529.00
2023-04-22T04:23:49.497Z,529.00
2023-04-22T04:24:44.683Z,525.00
2023-04-22T04:25:40.043Z,521.00
2023-04-22T04:26:35.244Z,522.00
2023-04-22T04:27:30.612Z,533.00
2023-04-22T04:28:25.945Z,523.00
2023-04-22T04:29:21.175Z,522.00
2023-04-22T04:30:16.501Z,522.00
2023-04-22T04:31:11.772Z,521.00
2023-04-22T04:32:07.071Z,518.00
2023-04-22T04:33:02.143Z,521.00
2023-04-22T04:33:57.205Z,522.00
2023-04-22T04:34:52.306Z,520.00
2023-04-22T04:35:47.475Z,529.00
2023-04-22T04:36:42.584Z,524.00
2023-04-22T04:37:37.671Z,523.00
2023-04-22T04:38:32.644Z,525.00
2023-04-22T04:39:27.687Z,526.00
2023-04-22T04:40:22.805Z,517.00
2023-04-22T04:41:17.828Z,535.00
2023-04-22T04:42:12.939Z,527.00
2023-04-22T04:43:07.996Z,535.00
2023-04-22T04:44:03.086Z,539.00
2023-04-22T04:44:58.126Z,527.00
2023-04-22T04:45:53.232Z,522.00
2023-04-22T04:46:48.490Z,519.00
2023-04-22T04:47:43.440Z,515.00
2023-04-22T04:48:38.405Z,533.00
2023-04-22T04:49:33.519Z,520.00
2023-04-22T04:50:28.499Z,524.00
2023-04-22T04:51:23.629Z,537.00
2023-04-22T04:52:18.623Z,539.00
2023-04-22T04:53:13.885Z,541.00
2023-04-22T04:54:09.264Z,546.00
2023-04-22T04:55:04.690Z,545.00
2023-04-22T04:56:00.044Z,535.00
2023-04-22T04:56:55.462Z,548.00
2023-04-22T04:57:50.708Z,541.00
2023-04-22T04:58:46.161Z,540.00
2023-04-22T04:59:41.762Z,544.00
2023-04-22T05:00:36.994Z,546.00
2023-04-22T05:01:32.125Z,541.00
2023-04-22T05:02:27.558Z,545.00
2023-04-22T05:03:22.357Z,545.00
2023-04-22T05:04:17.551Z,548.00
2023-04-22T05:05:12.347Z,541.00
2023-04-22T05:06:07.482Z,542.00
2023-04-22T05:07:02.635Z,542.00
2023-04-22T05:07:57.491Z,539.00
2023-04-22T05:08:52.484Z,545.00
2023-04-22T05:09:47.622Z,541.00
2023-04-22T05:10:42.601Z,544.00
2023-04-22T05:11:37.791Z,548.00
2023-04-22T05:12:32.676Z,545.00
2023-04-22T05:13:27.731Z,543.00
2023-04-22T05:14:25.210Z,537.00
2023-04-22T05:15:20.243Z,530.00
2023-04-22T05:16:15.449Z,533.00
2023-04-22T05:17:10.703Z,537.00
2023-04-22T05:18:05.689Z,537.00
2023-04-22T05:19:00.777Z,535.00
2023-04-22T05:19:55.788Z,528.00
2023-04-22T05:20:50.825Z,524.00
2023-04-22T05:21:46.004Z,524.00
2023-04-22T05:22:40.909Z,527.00
2023-04-22T05:23:35.981Z,520.00
2023-04-22T05:24:31.038Z,528.00
2023-04-22T05:25:26.098Z,523.00
2023-04-22T05:26:21.175Z,530.00
2023-04-22T05:27:16.195Z,528.00
2023-04-22T05:28:11.659Z,526.00
2023-04-22T05:29:06.832Z,523.00
2023-04-22T05:30:02.302Z,520.00
2023-04-22T05:30:57.641Z,521.00
2023-04-22T05:31:53.434Z,522.00
2023-04-22T05:32:48.602Z,533.00
2023-04-22T05:33:43.964Z,526.00
2023-04-22T05:34:39.251Z,521.00
2023-04-22T05:35:34.723Z,526.00
2023-04-22T05:36:37.904Z,525.00
2023-04-22T05:37:25.650Z,529.00
2023-04-22T05:38:20.861Z,530.00
2023-04-22T05:39:16.617Z,537.00
2023-04-22T05:40:11.944Z,531.00
2023-04-22T05:41:06.978Z,533.00
2023-04-22T05:42:02.095Z,530.00
2023-04-22T05:42:57.279Z,532.00
2023-04-22T05:43:52.452Z,534.00
2023-04-22T05:44:47.535Z,532.00
2023-04-22T05:45:42.578Z,535.00
2023-04-22T05:46:37.927Z,529.00
2023-04-22T05:47:32.763Z,531.00
2023-04-22T05:48:27.813Z,532.00
2023-04-22T05:49:22.917Z,532.00
2023-04-22T05:50:17.955Z,543.00
2023-04-22T05:51:13.055Z,535.00
2023-04-22T05:52:10.277Z,534.00
2023-04-22T05:53:05.194Z,536.00
2023-04-22T05:54:00.233Z,538.00
2023-04-22T05:54:55.319Z,533.00
2023-04-22T05:55:50.273Z,539.00
2023-04-22T05:56:45.547Z,533.00
2023-04-22T05:57:40.441Z,528.00
2023-04-22T05:58:35.517Z,551.00
2023-04-22T05:59:30.493Z,540.00
2023-04-22T06:00:25.537Z,542.00
2023-04-22T06:01:22.081Z,550.00
2023-04-22T06:02:17.584Z,554.00
2023-04-22T06:03:13.256Z,544.00
2023-04-22T06:04:08.956Z,553.00
2023-04-22T06:05:04.224Z,552.00
2023-04-22T06:05:59.898Z,548.00
2023-04-22T06:06:55.234Z,551.00
2023-04-22T06:07:51.033Z,552.00
2023-04-22T06:08:46.539Z,549.00
2023-04-22T06:09:42.079Z,551.00
2023-04-22T06:10:37.450Z,555.00
2023-04-22T06:11:32.989Z,565.00
2023-04-22T06:12:28.122Z,563.00
2023-04-22T06:13:24.724Z,559.00
2023-04-22T06:14:20.045Z,550.00
2023-04-22T06:15:15.804Z,550.00
2023-04-22T06:16:11.214Z,543.00
2023-04-22T06:17:06.698Z,553.00
2023-04-22T06:18:02.518Z,547.00
2023-04-22T06:18:57.917Z,549.00
2023-04-22T06:19:53.774Z,546.00
2023-04-22T06:20:49.106Z,545.00
2023-04-22T06:21:44.643Z,547.00
2023-04-22T06:22:41.188Z,564.00
2023-04-22T06:23:36.462Z,554.00
2023-04-22T06:24:31.870Z,549.00
2023-04-22T06:25:28.128Z,546.00
2023-04-22T06:26:23.707Z,550.00
2023-04-22T06:27:19.465Z,570.00
2023-04-22T06:28:14.910Z,559.00
2023-04-22T06:29:10.382Z,557.00
2023-04-22T06:30:06.034Z,558.00
2023-04-22T06:31:01.578Z,553.00
2023-04-22T06:31:57.275Z,549.00
2023-04-22T06:32:52.648Z,549.00
2023-04-22T06:33:48.056Z,547.00
2023-04-22T06:34:43.768Z,539.00
2023-04-22T06:35:39.241Z,543.00
2023-04-22T06:36:34.812Z,544.00
2023-04-22T06:37:30.958Z,549.00
2023-04-22T06:38:26.336Z,559.00
2023-04-22T06:39:22.288Z,551.00
2023-04-22T06:40:17.628Z,548.00
2023-04-22T06:41:13.269Z,553.00
2023-04-22T06:42:08.936Z,557.00
2023-04-22T06:43:04.259Z,554.00
2023-04-22T06:44:00.147Z,565.00
2023-04-22T06:44:55.431Z,549.00
2023-04-22T06:45:50.901Z,558.00
2023-04-22T06:46:46.703Z,556.00
2023-04-22T06:47:41.954Z,550.00
2023-04-22T06:48:37.582Z,556.00
2023-04-22T06:49:32.909Z,551.00
2023-04-22T06:50:28.863Z,562.00
2023-04-22T06:51:24.248Z,560.00
2023-04-22T06:52:20.101Z,552.00
2023-04-22T06:53:15.351Z,552.00
2023-04-22T06:54:10.823Z,550.00
2023-04-22T06:55:06.119Z,550.00
2023-04-22T06:56:02.970Z,556.00
2023-04-22T06:56:58.190Z,554.00
2023-04-22T06:57:54.032Z,550.00
2023-04-22T06:58:49.363Z,553.00
2023-04-22T06:59:46.811Z,554.00
2023-04-22T07:00:40.647Z,563.00
2023-04-22T07:01:36.049Z,569.00
2023-04-22T07:02:31.873Z,574.00
2023-04-22T07:03:27.254Z,564.00
2023-04-22T07:04:22.606Z,562.00
2023-04-22T07:05:18.357Z,565.00
2023-04-22T07:06:13.722Z,560.00
2023-04-22T07:07:09.250Z,567.00
2023-04-22T07:08:04.486Z,569.00
2023-04-22T07:09:00.174Z,570.00
2023-04-22T07:09:55.499Z,566.00
2023-04-22T07:10:50.739Z,569.00
2023-04-22T07:11:45.665Z,566.00
2023-04-22T07:12:40.681Z,568.00
2023-04-22T07:13:35.714Z,574.00
2023-04-22T07:14:30.793Z,567.00
2023-04-22T07:15:25.873Z,562.00
2023-04-22T07:16:20.980Z,574.00
2023-04-22T07:17:15.958Z,615.00
2023-04-22T07:18:10.989Z,589.00
2023-04-22T07:19:06.149Z,566.00
2023-04-22T07:20:01.266Z,567.00
2023-04-22T07:20:56.355Z,562.00
2023-04-22T07:21:51.552Z,564.00
2023-04-22T07:22:46.591Z,568.00
2023-04-22T07:23:41.798Z,563.00
2023-04-22T07:24:37.560Z,557.00
2023-04-22T07:25:33.207Z,560.00
2023-04-22T07:26:28.433Z,559.00
2023-04-22T07:27:24.548Z,561.00
2023-04-22T07:28:19.813Z,560.00
2023-04-22T07:29:15.553Z,556.00
2023-04-22T07:30:10.977Z,566.00
2023-04-22T07:31:06.729Z,558.00
2023-04-22T07:32:02.496Z,553.00
2023-04-22T07:32:58.007Z,563.00
2023-04-22T07:33:53.402Z,565.00
2023-04-22T07:34:49.701Z,563.00
2023-04-22T07:35:45.155Z,573.00
2023-04-22T07:36:40.997Z,570.00
2023-04-22T07:37:36.440Z,564.00
2023-04-22T07:38:32.000Z,577.00
2023-04-22T07:39:27.722Z,561.00
2023-04-22T07:40:23.199Z,687.00
2023-04-22T07:41:19.018Z,578.00
2023-04-22T07:42:14.288Z,564.00
2023-04-22T07:43:09.596Z,570.00
2023-04-22T07:44:05.386Z,600.00
2023-04-22T07:45:00.842Z,665.00
2023-04-22T07:45:56.414Z,709.00
2023-04-22T07:46:52.527Z,579.00
2023-04-22T07:47:48.014Z,606.00
2023-04-22T07:48:43.734Z,568.00
2023-04-22T07:49:39.472Z,557.00
2023-04-22T07:50:36.368Z,571.00
2023-04-22T07:51:30.552Z,547.00
2023-04-22T07:52:26.026Z,593.00
2023-04-22T07:53:21.930Z,537.00
2023-04-22T07:54:17.290Z,561.00
2023-04-22T07:55:12.707Z,566.00
2023-04-22T07:56:08.313Z,545.00
2023-04-22T07:57:03.808Z,604.00
2023-04-22T07:57:59.287Z,591.00
2023-04-22T07:58:55.510Z,562.00
2023-04-22T07:59:51.143Z,608.00
2023-04-22T08:00:46.845Z,544.00
2023-04-22T08:01:42.320Z,569.00
2023-04-22T08:02:38.041Z,577.00
2023-04-22T08:03:33.791Z,550.00
2023-04-22T08:04:29.324Z,640.00
2023-04-22T08:05:25.043Z,648.00
2023-04-22T08:06:20.248Z,582.00
2023-04-22T08:07:32.149Z,566.00
2023-04-22T08:08:12.525Z,577.00
2023-04-22T08:09:07.264Z,544.00
2023-04-22T08:10:02.608Z,529.00
2023-04-22T08:10:58.934Z,536.00
2023-04-22T08:11:54.481Z,513.00
2023-04-22T08:12:50.203Z,567.00
2023-04-22T08:13:45.599Z,528.00
2023-04-22T08:14:40.922Z,547.00
2023-04-22T08:15:37.113Z,543.00
2023-04-22T08:16:32.314Z,533.00
2023-04-22T08:17:27.839Z,571.00
2023-04-22T08:18:23.166Z,523.00
2023-04-22T08:19:18.924Z,567.00
2023-04-22T08:20:14.429Z,555.00
2023-04-22T08:21:09.819Z,528.00
2023-04-22T08:22:06.072Z,525.00
2023-04-22T08:23:01.463Z,522.00
2023-04-22T08:23:57.089Z,664.00
2023-04-22T08:24:52.753Z,534.00
2023-04-22T08:25:48.088Z,527.00
2023-04-22T08:26:43.840Z,529.00
2023-04-22T08:27:39.206Z,545.00
2023-04-22T08:28:35.098Z,538.00
2023-04-22T08:29:30.607Z,529.00
2023-04-22T08:30:26.132Z,535.00
2023-04-22T08:31:21.854Z,531.00
2023-04-22T08:32:17.385Z,529.00
2023-04-22T08:33:12.706Z,558.00
2023-04-22T08:34:09.421Z,569.00
2023-04-22T08:35:05.700Z,530.00
2023-04-22T08:36:00.342Z,530.00
2023-04-22T08:36:55.804Z,561.00
2023-04-22T08:37:51.339Z,561.00
2023-04-22T08:38:48.330Z,531.00
2023-04-22T08:39:41.560Z,552.00
2023-04-22T08:40:36.414Z,757.00
2023-04-22T08:41:31.524Z,600.00
2023-04-22T08:42:26.764Z,535.00
2023-04-22T08:43:21.971Z,519.00
2023-04-22T08:44:17.590Z,530.00
2023-04-22T08:45:14.095Z,529.00
2023-04-22T08:46:09.459Z,530.00
2023-04-22T08:47:05.473Z,534.00
2023-04-22T08:48:00.889Z,560.00
2023-04-22T08:48:56.341Z,545.00
2023-04-22T08:49:52.142Z,525.00
2023-04-22T08:50:47.632Z,535.00
2023-04-22T08:51:43.494Z,526.00
2023-04-22T08:52:38.888Z,520.00
2023-04-22T08:53:34.217Z,522.00
2023-04-22T08:54:30.010Z,520.00
2023-04-22T08:55:25.485Z,520.00
2023-04-22T08:56:21.306Z,529.00
2023-04-22T08:57:17.191Z,522.00
2023-04-22T08:58:12.698Z,516.00
2023-04-22T08:59:08.560Z,520.00
2023-04-22T09:00:04.190Z,521.00
2023-04-22T09:00:59.511Z,523.00
2023-04-22T09:01:55.461Z,517.00
2023-04-22T09:02:51.006Z,521.00
2023-04-22T09:03:46.933Z,519.00
2023-04-22T09:04:42.187Z,524.00
2023-04-22T09:05:37.628Z,730.00
2023-04-22T09:06:33.397Z,619.00
2023-04-22T09:07:29.169Z,606.00
2023-04-22T09:08:24.474Z,738.00
2023-04-22T09:09:21.007Z,718.00
2023-04-22T09:10:16.472Z,669.00
2023-04-22T09:11:12.361Z,574.00
2023-04-22T09:12:07.714Z,539.00
2023-04-22T09:13:03.225Z,537.00
2023-04-22T09:13:58.843Z,535.00
2023-04-22T09:14:54.513Z,559.00
2023-04-22T09:15:50.320Z,536.00
2023-04-22T09:16:45.611Z,540.00
2023-04-22T09:17:40.960Z,533.00
2023-04-22T09:18:36.853Z,537.00
2023-04-22T09:19:32.476Z,634.00
2023-04-22T09:20:27.866Z,575.00
2023-04-22T09:21:24.326Z,546.00
2023-04-22T09:22:19.781Z,542.00
2023-04-22T09:23:15.632Z,534.00
2023-04-22T09:24:11.282Z,578.00
2023-04-22T09:25:06.608Z,586.00
2023-04-22T09:26:02.558Z,555.00
2023-04-22T09:26:58.020Z,536.00
2023-04-22T09:27:53.927Z,534.00
2023-04-22T09:28:49.270Z,533.00
2023-04-22T09:29:44.926Z,527.00
2023-04-22T09:30:40.665Z,529.00
2023-04-22T09:31:35.977Z,532.00
2023-04-22T09:32:31.501Z,533.00
2023-04-22T09:33:27.866Z,526.00
2023-04-22T09:34:23.143Z,525.00
2023-04-22T09:35:19.178Z,525.00
2023-04-22T09:36:14.511Z,523.00
2023-04-22T09:37:10.154Z,529.00
2023-04-22T09:38:05.779Z,526.00
2023-04-22T09:39:01.290Z,524.00
2023-04-22T09:39:57.204Z,530.00
2023-04-22T09:40:52.471Z,561.00
2023-04-22T09:41:47.928Z,537.00
2023-04-22T09:42:43.714Z,530.00
2023-04-22T09:43:39.020Z,526.00
2023-04-22T09:44:34.924Z,530.00
2023-04-22T09:45:30.524Z,528.00
2023-04-22T09:46:26.161Z,548.00
2023-04-22T09:47:21.878Z,544.00
2023-04-22T09:48:17.330Z,529.00
2023-04-22T09:49:13.313Z,523.00
2023-04-22T09:50:08.679Z,528.00
2023-04-22T09:51:04.014Z,557.00
2023-04-22T09:52:00.111Z,534.00
2023-04-22T09:52:55.461Z,530.00
2023-04-22T09:53:50.900Z,534.00
2023-04-22T09:54:47.309Z,528.00
2023-04-22T09:55:42.757Z,528.00
2023-04-22T09:56:38.665Z,528.00
2023-04-22T09:57:34.118Z,536.00
2023-04-22T09:58:29.737Z,529.00
2023-04-22T09:59:25.242Z,528.00
2023-04-22T10:00:20.776Z,523.00
2023-04-22T10:01:17.371Z,530.00
2023-04-22T10:02:12.866Z,526.00
2023-04-22T10:03:10.630Z,514.00
2023-04-22T10:04:04.155Z,516.00
2023-04-22T10:04:59.512Z,511.00
2023-04-22T10:05:54.896Z,510.00
2023-04-22T10:06:50.201Z,506.00
2023-04-22T10:07:45.331Z,511.00
2023-04-22T10:08:40.291Z,514.00
2023-04-22T10:09:35.408Z,514.00
2023-04-22T10:10:30.356Z,536.00
2023-04-22T10:11:25.444Z,523.00
2023-04-22T10:12:26.177Z,516.00
2023-04-22T10:13:16.589Z,521.00
2023-04-22T10:14:10.556Z,520.00
2023-04-22T10:15:09.299Z,527.00
2023-04-22T10:16:04.247Z,521.00
2023-04-22T10:16:59.413Z,519.00
2023-04-22T10:17:54.369Z,523.00
2023-04-22T10:18:49.485Z,524.00
2023-04-22T10:19:44.543Z,523.00
2023-04-22T10:20:39.525Z,522.00
2023-04-22T10:21:34.608Z,519.00
2023-04-22T10:22:29.659Z,515.00
2023-04-22T10:23:25.118Z,516.00
2023-04-22T10:24:21.598Z,515.00
2023-04-22T10:25:17.078Z,513.00
2023-04-22T10:26:12.981Z,524.00
2023-04-22T10:27:08.638Z,508.00
2023-04-22T10:28:03.989Z,510.00
2023-04-22T10:29:00.106Z,509.00
2023-04-22T10:29:55.491Z,507.00
2023-04-22T10:30:51.187Z,511.00
2023-04-22T10:31:46.633Z,508.00
2023-04-22T10:32:42.147Z,517.00
2023-04-22T10:33:38.034Z,515.00
2023-04-22T10:34:33.640Z,518.00
2023-04-22T10:35:29.130Z,520.00
2023-04-22T10:36:25.413Z,524.00
2023-04-22T10:37:21.043Z,525.00
2023-04-22T10:38:16.946Z,510.00
2023-04-22T10:39:12.449Z,509.00
2023-04-22T10:40:07.900Z,515.00
2023-04-22T10:41:04.001Z,519.00
2023-04-22T10:41:59.322Z,517.00
2023-04-22T10:42:55.212Z,518.00
2023-04-22T10:43:50.539Z,519.00
2023-04-22T10:44:46.453Z,519.00
2023-04-22T10:45:41.980Z,510.00
2023-04-22T10:46:37.878Z,507.00
2023-04-22T10:47:32.999Z,513.00
2023-04-22T10:48:28.244Z,514.00
2023-04-22T10:49:23.191Z,517.00
2023-04-22T10:50:18.277Z,517.00
2023-04-22T10:51:13.354Z,516.00
2023-04-22T10:52:08.429Z,508.00
2023-04-22T10:53:03.645Z,509.00
2023-04-22T10:53:58.732Z,507.00
2023-04-22T10:54:53.938Z,510.00
2023-04-22T10:55:49.052Z,508.00
2023-04-22T10:57:39.256Z,507.00
2023-04-22T10:58:36.205Z,506.00
2023-04-22T10:59:31.477Z,509.00
2023-04-22T11:00:27.043Z,509.00
2023-04-22T11:01:21.493Z,507.00
2023-04-22T11:02:16.515Z,508.00
2023-04-22T11:03:11.739Z,511.00
2023-04-22T11:04:06.767Z,520.00
2023-04-22T11:05:01.900Z,508.00
2023-04-22T11:05:56.797Z,506.00
2023-04-22T11:06:52.282Z,518.00
2023-04-22T11:07:48.595Z,515.00
2023-04-22T11:08:44.074Z,504.00
2023-04-22T11:09:40.337Z,506.00
2023-04-22T11:10:35.816Z,511.00
2023-04-22T11:11:30.753Z,509.00
2023-04-22T11:12:26.697Z,474.00
2023-04-22T11:13:22.319Z,464.00
2023-04-22T11:14:17.813Z,471.00
2023-04-22T11:15:12.764Z,469.00
2023-04-22T11:16:07.940Z,470.00
2023-04-22T11:17:02.903Z,463.00
2023-04-22T11:17:58.061Z,459.00
2023-04-22T11:18:53.022Z,460.00
2023-04-22T11:19:54.135Z,459.00
2023-04-22T11:20:49.491Z,458.00
2023-04-22T11:21:45.030Z,460.00
2023-04-22T11:22:40.855Z,457.00
2023-04-22T11:23:36.310Z,460.00
2023-04-22T11:24:31.688Z,470.00
2023-04-22T11:25:27.976Z,469.00
2023-04-22T11:26:23.484Z,472.00
2023-04-22T11:27:19.511Z,466.00
2023-04-22T11:28:14.757Z,464.00
2023-04-22T11:29:10.186Z,457.00
2023-04-22T11:30:05.864Z,460.00
2023-04-22T11:31:01.321Z,458.00
2023-04-22T11:31:56.716Z,467.00